sensor_id;sensor_type;location;lat;lon;timestamp;P1;durP1;ratioP1;P2;durP2;ratioP2
17169;SDS011;8700;48.222;16.342;2023-09-19T00:00:24;1.50;;;1.38;;
17169;SDS011;8700;48.222;16.342;2023-09-19T00:03:49;1.60;;;1.50;;
17169;SDS011;8700;48.222;16.342;2023-09-19T00:07:12;4.18;;;1.70;;
17169;SDS011;8700;48.222;16.342;2023-09-19T00:10:36;1.83;;;1.17;;
17169;SDS011;8700;48.222;16.342;2023-09-19T00:13:59;1.50;;;1.40;;
17169;SDS011;8700;48.222;16.342;2023-09-19T00:17:22;1.35;;;1.25;;
17169;SDS011;8700;48.222;16.342;2023-09-19T00:20:46;2.33;;;2.15;;
17169;SDS011;8700;48.222;16.342;2023-09-19T00:24:10;1.73;;;1.63;;
17169;SDS011;8700;48.222;16.342;2023-09-19T00:27:33;1.23;;;1.23;;
17169;SDS011;8700;48.222;16.342;2023-09-19T00:30:55;1.90;;;1.80;;
17169;SDS011;8700;48.222;16.342;2023-09-19T00:34:21;4.95;;;2.30;;
17169;SDS011;8700;48.222;16.342;2023-09-19T00:37:45;1.67;;;1.58;;
17169;SDS011;8700;48.222;16.342;2023-09-19T00:41:08;1.63;;;1.52;;
17169;SDS011;8700;48.222;16.342;2023-09-19T00:44:33;2.78;;;1.80;;
17169;SDS011;8700;48.222;16.342;2023-09-19T00:47:57;1.65;;;1.50;;
17169;SDS011;8700;48.222;16.342;2023-09-19T00:51:24;2.53;;;1.70;;
17169;SDS011;8700;48.222;16.342;2023-09-19T00:54:49;0.98;;;0.98;;
17169;SDS011;8700;48.222;16.342;2023-09-19T00:58:12;1.02;;;1.02;;
17169;SDS011;8700;48.222;16.342;2023-09-19T01:01:35;3.28;;;1.67;;
17169;SDS011;8700;48.222;16.342;2023-09-19T01:04:59;1.35;;;1.25;;
17169;SDS011;8700;48.222;16.342;2023-09-19T01:08:24;3.20;;;1.67;;
17169;SDS011;8700;48.222;16.342;2023-09-19T01:11:51;1.70;;;1.60;;
17169;SDS011;8700;48.222;16.342;2023-09-19T01:15:21;1.60;;;1.50;;
17169;SDS011;8700;48.222;16.342;2023-09-19T01:18:52;1.45;;;1.35;;
17169;SDS011;8700;48.222;16.342;2023-09-19T01:22:26;1.40;;;1.30;;
17169;SDS011;8700;48.222;16.342;2023-09-19T01:26:04;1.50;;;1.27;;
17169;SDS011;8700;48.222;16.342;2023-09-19T01:29:33;1.42;;;1.33;;
17169;SDS011;8700;48.222;16.342;2023-09-19T01:33:02;1.92;;;1.38;;
17169;SDS011;8700;48.222;16.342;2023-09-19T01:36:27;1.60;;;1.50;;
17169;SDS011;8700;48.222;16.342;2023-09-19T01:39:51;1.60;;;1.60;;
17169;SDS011;8700;48.222;16.342;2023-09-19T01:43:20;1.67;;;1.30;;
17169;SDS011;8700;48.222;16.342;2023-09-19T01:46:46;2.03;;;1.90;;
17169;SDS011;8700;48.222;16.342;2023-09-19T01:50:13;1.92;;;1.50;;
17169;SDS011;8700;48.222;16.342;2023-09-19T01:53:45;1.92;;;1.25;;
17169;SDS011;8700;48.222;16.342;2023-09-19T01:57:14;2.38;;;1.50;;
17169;SDS011;8700;48.222;16.342;2023-09-19T02:00:44;2.67;;;2.03;;
17169;SDS011;8700;48.222;16.342;2023-09-19T02:04:11;2.15;;;1.95;;
17169;SDS011;8700;48.222;16.342;2023-09-19T02:07:36;4.35;;;1.98;;
17169;SDS011;8700;48.222;16.342;2023-09-19T02:11:00;3.13;;;1.77;;
17169;SDS011;8700;48.222;16.342;2023-09-19T02:14:23;2.53;;;1.23;;
17169;SDS011;8700;48.222;16.342;2023-09-19T02:17:45;1.65;;;1.55;;
17169;SDS011;8700;48.222;16.342;2023-09-19T02:21:07;3.08;;;1.67;;
17169;SDS011;8700;48.222;16.342;2023-09-19T02:24:34;1.88;;;1.77;;
17169;SDS011;8700;48.222;16.342;2023-09-19T02:27:58;1.50;;;1.40;;
17169;SDS011;8700;48.222;16.342;2023-09-19T02:31:21;1.02;;;1.02;;
17169;SDS011;8700;48.222;16.342;2023-09-19T02:34:43;2.67;;;1.40;;
17169;SDS011;8700;48.222;16.342;2023-09-19T02:38:06;1.10;;;1.10;;
17169;SDS011;8700;48.222;16.342;2023-09-19T02:41:32;1.63;;;1.52;;
17169;SDS011;8700;48.222;16.342;2023-09-19T02:44:55;1.63;;;1.50;;
17169;SDS011;8700;48.222;16.342;2023-09-19T02:48:19;2.28;;;2.08;;
17169;SDS011;8700;48.222;16.342;2023-09-19T02:51:41;1.45;;;1.35;;
17169;SDS011;8700;48.222;16.342;2023-09-19T02:55:04;2.92;;;1.90;;
17169;SDS011;8700;48.222;16.342;2023-09-19T02:58:30;1.55;;;1.45;;
17169;SDS011;8700;48.222;16.342;2023-09-19T03:01:55;1.50;;;1.40;;
17169;SDS011;8700;48.222;16.342;2023-09-19T03:05:17;2.58;;;1.75;;
17169;SDS011;8700;48.222;16.342;2023-09-19T03:08:40;2.90;;;1.67;;
17169;SDS011;8700;48.222;16.342;2023-09-19T03:12:04;2.53;;;2.42;;
17169;SDS011;8700;48.222;16.342;2023-09-19T03:15:28;2.60;;;1.90;;
17169;SDS011;8700;48.222;16.342;2023-09-19T03:18:51;1.88;;;1.77;;
17169;SDS011;8700;48.222;16.342;2023-09-19T03:22:13;2.30;;;1.88;;
17169;SDS011;8700;48.222;16.342;2023-09-19T03:25:36;1.77;;;1.67;;
17169;SDS011;8700;48.222;16.342;2023-09-19T03:28:59;1.85;;;1.75;;
17169;SDS011;8700;48.222;16.342;2023-09-19T03:32:28;2.00;;;1.73;;
17169;SDS011;8700;48.222;16.342;2023-09-19T03:35:51;4.28;;;1.80;;
17169;SDS011;8700;48.222;16.342;2023-09-19T03:39:14;2.67;;;2.58;;
17169;SDS011;8700;48.222;16.342;2023-09-19T03:42:38;2.20;;;2.00;;
17169;SDS011;8700;48.222;16.342;2023-09-19T03:46:01;5.20;;;3.80;;
17169;SDS011;8700;48.222;16.342;2023-09-19T03:49:26;2.60;;;2.45;;
17169;SDS011;8700;48.222;16.342;2023-09-19T03:52:50;2.47;;;2.17;;
17169;SDS011;8700;48.222;16.342;2023-09-19T03:56:17;2.35;;;2.13;;
17169;SDS011;8700;48.222;16.342;2023-09-19T03:59:39;2.20;;;2.00;;
17169;SDS011;8700;48.222;16.342;2023-09-19T04:03:02;1.90;;;1.70;;
17169;SDS011;8700;48.222;16.342;2023-09-19T04:06:28;2.95;;;2.70;;
17169;SDS011;8700;48.222;16.342;2023-09-19T04:09:50;3.47;;;2.50;;
17169;SDS011;8700;48.222;16.342;2023-09-19T04:13:13;2.63;;;2.35;;
17169;SDS011;8700;48.222;16.342;2023-09-19T04:16:35;2.25;;;2.10;;
17169;SDS011;8700;48.222;16.342;2023-09-19T04:19:59;2.50;;;2.13;;
17169;SDS011;8700;48.222;16.342;2023-09-19T04:23:22;3.40;;;2.05;;
17169;SDS011;8700;48.222;16.342;2023-09-19T04:26:45;2.75;;;2.03;;
17169;SDS011;8700;48.222;16.342;2023-09-19T04:30:08;2.65;;;2.45;;
17169;SDS011;8700;48.222;16.342;2023-09-19T04:33:32;3.70;;;2.45;;
17169;SDS011;8700;48.222;16.342;2023-09-19T04:36:54;2.50;;;2.25;;
17169;SDS011;8700;48.222;16.342;2023-09-19T04:40:20;2.78;;;2.58;;
17169;SDS011;8700;48.222;16.342;2023-09-19T04:43:42;3.20;;;2.30;;
17169;SDS011;8700;48.222;16.342;2023-09-19T04:47:05;3.05;;;2.85;;
17169;SDS011;8700;48.222;16.342;2023-09-19T04:50:27;2.97;;;2.78;;
17169;SDS011;8700;48.222;16.342;2023-09-19T04:53:50;3.08;;;2.67;;
17169;SDS011;8700;48.222;16.342;2023-09-19T04:57:14;2.60;;;2.40;;
17169;SDS011;8700;48.222;16.342;2023-09-19T05:00:37;2.97;;;2.78;;
17169;SDS011;8700;48.222;16.342;2023-09-19T05:04:00;3.35;;;3.13;;
17169;SDS011;8700;48.222;16.342;2023-09-19T05:07:24;3.53;;;3.22;;
17169;SDS011;8700;48.222;16.342;2023-09-19T05:10:47;4.47;;;4.13;;
17169;SDS011;8700;48.222;16.342;2023-09-19T05:14:12;3.38;;;2.83;;
17169;SDS011;8700;48.222;16.342;2023-09-19T05:17:35;4.63;;;3.30;;
17169;SDS011;8700;48.222;16.342;2023-09-19T05:21:01;4.35;;;3.00;;
17169;SDS011;8700;48.222;16.342;2023-09-19T05:24:26;4.50;;;3.75;;
17169;SDS011;8700;48.222;16.342;2023-09-19T05:27:48;4.25;;;3.28;;
17169;SDS011;8700;48.222;16.342;2023-09-19T05:31:14;4.32;;;3.92;;
17169;SDS011;8700;48.222;16.342;2023-09-19T05:34:38;3.80;;;3.50;;
17169;SDS011;8700;48.222;16.342;2023-09-19T05:38:01;4.82;;;4.43;;
17169;SDS011;8700;48.222;16.342;2023-09-19T05:41:25;4.55;;;4.15;;
17169;SDS011;8700;48.222;16.342;2023-09-19T05:44:48;4.57;;;4.20;;
17169;SDS011;8700;48.222;16.342;2023-09-19T05:48:12;4.18;;;3.40;;
17169;SDS011;8700;48.222;16.342;2023-09-19T05:51:36;5.78;;;4.35;;
17169;SDS011;8700;48.222;16.342;2023-09-19T05:54:59;4.43;;;3.78;;
17169;SDS011;8700;48.222;16.342;2023-09-19T05:58:26;5.22;;;4.30;;
17169;SDS011;8700;48.222;16.342;2023-09-19T06:01:50;4.63;;;4.22;;
17169;SDS011;8700;48.222;16.342;2023-09-19T06:05:17;5.05;;;3.10;;
17169;SDS011;8700;48.222;16.342;2023-09-19T06:08:41;6.43;;;3.15;;
17169;SDS011;8700;48.222;16.342;2023-09-19T06:12:08;8.43;;;4.35;;
17169;SDS011;8700;48.222;16.342;2023-09-19T06:15:37;5.97;;;3.95;;
17169;SDS011;8700;48.222;16.342;2023-09-19T06:19:01;3.30;;;3.10;;
17169;SDS011;8700;48.222;16.342;2023-09-19T06:26:57;7.60;;;5.05;;
17169;SDS011;8700;48.222;16.342;2023-09-19T06:30:21;3.00;;;2.78;;
17169;SDS011;8700;48.222;16.342;2023-09-19T06:33:47;3.90;;;2.85;;
17169;SDS011;8700;48.222;16.342;2023-09-19T06:37:10;4.93;;;4.43;;
17169;SDS011;8700;48.222;16.342;2023-09-19T06:40:33;4.65;;;4.25;;
17169;SDS011;8700;48.222;16.342;2023-09-19T06:43:58;3.28;;;2.95;;
17169;SDS011;8700;48.222;16.342;2023-09-19T06:47:21;4.47;;;4.18;;
17169;SDS011;8700;48.222;16.342;2023-09-19T06:50:45;3.50;;;3.20;;
17169;SDS011;8700;48.222;16.342;2023-09-19T06:54:09;3.38;;;2.92;;
17169;SDS011;8700;48.222;16.342;2023-09-19T06:57:31;4.18;;;3.78;;
17169;SDS011;8700;48.222;16.342;2023-09-19T07:00:56;3.47;;;3.13;;
17169;SDS011;8700;48.222;16.342;2023-09-19T07:04:18;3.30;;;3.00;;
17169;SDS011;8700;48.222;16.342;2023-09-19T07:07:41;4.60;;;3.65;;
17169;SDS011;8700;48.222;16.342;2023-09-19T07:11:05;5.28;;;3.45;;
17169;SDS011;8700;48.222;16.342;2023-09-19T07:14:28;3.33;;;2.70;;
17169;SDS011;8700;48.222;16.342;2023-09-19T07:17:52;3.28;;;2.97;;
17169;SDS011;8700;48.222;16.342;2023-09-19T07:21:16;4.38;;;3.55;;
17169;SDS011;8700;48.222;16.342;2023-09-19T07:24:38;2.88;;;2.58;;
17169;SDS011;8700;48.222;16.342;2023-09-19T07:28:04;4.18;;;3.22;;
17169;SDS011;8700;48.222;16.342;2023-09-19T07:31:27;4.05;;;2.72;;
17169;SDS011;8700;48.222;16.342;2023-09-19T07:34:54;3.67;;;3.20;;
17169;SDS011;8700;48.222;16.342;2023-09-19T07:38:16;3.22;;;3.03;;
17169;SDS011;8700;48.222;16.342;2023-09-19T07:41:41;3.80;;;3.50;;
17169;SDS011;8700;48.222;16.342;2023-09-19T07:45:06;3.35;;;3.05;;
17169;SDS011;8700;48.222;16.342;2023-09-19T07:48:30;4.85;;;4.18;;
17169;SDS011;8700;48.222;16.342;2023-09-19T07:51:55;3.30;;;3.10;;
17169;SDS011;8700;48.222;16.342;2023-09-19T07:55:19;3.78;;;3.33;;
17169;SDS011;8700;48.222;16.342;2023-09-19T07:58:44;4.68;;;4.28;;
17169;SDS011;8700;48.222;16.342;2023-09-19T08:02:08;3.55;;;3.35;;
17169;SDS011;8700;48.222;16.342;2023-09-19T08:05:35;4.35;;;3.95;;
17169;SDS011;8700;48.222;16.342;2023-09-19T08:09:00;3.70;;;3.50;;
17169;SDS011;8700;48.222;16.342;2023-09-19T08:12:27;4.10;;;3.70;;
17169;SDS011;8700;48.222;16.342;2023-09-19T08:15:50;4.10;;;3.72;;
17169;SDS011;8700;48.222;16.342;2023-09-19T08:19:13;4.28;;;3.88;;
17169;SDS011;8700;48.222;16.342;2023-09-19T08:22:37;3.90;;;3.60;;
17169;SDS011;8700;48.222;16.342;2023-09-19T08:26:02;3.35;;;3.05;;
17169;SDS011;8700;48.222;16.342;2023-09-19T08:29:28;4.18;;;3.83;;
17169;SDS011;8700;48.222;16.342;2023-09-19T08:32:51;3.03;;;2.72;;
17169;SDS011;8700;48.222;16.342;2023-09-19T08:36:18;4.00;;;2.30;;
17169;SDS011;8700;48.222;16.342;2023-09-19T08:39:41;5.70;;;3.30;;
17169;SDS011;8700;48.222;16.342;2023-09-19T08:43:06;5.13;;;3.97;;
17169;SDS011;8700;48.222;16.342;2023-09-19T08:46:29;4.82;;;4.20;;
17169;SDS011;8700;48.222;16.342;2023-09-19T08:49:58;6.10;;;4.47;;
17169;SDS011;8700;48.222;16.342;2023-09-19T08:53:31;3.45;;;3.15;;
17169;SDS011;8700;48.222;16.342;2023-09-19T08:57:05;4.65;;;2.70;;
17169;SDS011;8700;48.222;16.342;2023-09-19T09:00:33;5.15;;;2.80;;
17169;SDS011;8700;48.222;16.342;2023-09-19T09:03:58;3.55;;;3.25;;
17169;SDS011;8700;48.222;16.342;2023-09-19T09:07:22;3.42;;;3.20;;
17169;SDS011;8700;48.222;16.342;2023-09-19T09:10:48;4.53;;;3.45;;
17169;SDS011;8700;48.222;16.342;2023-09-19T09:14:11;3.40;;;3.20;;
17169;SDS011;8700;48.222;16.342;2023-09-19T09:17:36;5.03;;;3.45;;
17169;SDS011;8700;48.222;16.342;2023-09-19T09:20:58;4.03;;;3.17;;
17169;SDS011;8700;48.222;16.342;2023-09-19T09:24:27;4.40;;;3.17;;
17169;SDS011;8700;48.222;16.342;2023-09-19T09:27:59;3.25;;;2.95;;
17169;SDS011;8700;48.222;16.342;2023-09-19T09:31:23;2.92;;;2.72;;
17169;SDS011;8700;48.222;16.342;2023-09-19T09:34:50;4.40;;;3.58;;
17169;SDS011;8700;48.222;16.342;2023-09-19T09:38:13;4.75;;;2.85;;
17169;SDS011;8700;48.222;16.342;2023-09-19T09:41:38;3.42;;;3.22;;
17169;SDS011;8700;48.222;16.342;2023-09-19T09:45:14;2.67;;;2.47;;
17169;SDS011;8700;48.222;16.342;2023-09-19T09:48:38;3.03;;;2.83;;
17169;SDS011;8700;48.222;16.342;2023-09-19T09:52:07;5.47;;;5.07;;
17169;SDS011;8700;48.222;16.342;2023-09-19T09:59:21;2.80;;;2.55;;
17169;SDS011;8700;48.222;16.342;2023-09-19T10:02:47;5.28;;;2.70;;
17169;SDS011;8700;48.222;16.342;2023-09-19T10:06:12;4.35;;;2.00;;
17169;SDS011;8700;48.222;16.342;2023-09-19T10:09:52;2.85;;;2.65;;
17169;SDS011;8700;48.222;16.342;2023-09-19T10:13:25;3.90;;;3.03;;
17169;SDS011;8700;48.222;16.342;2023-09-19T10:16:53;2.55;;;2.35;;
17169;SDS011;8700;48.222;16.342;2023-09-19T10:20:21;3.08;;;2.88;;
17169;SDS011;8700;48.222;16.342;2023-09-19T10:23:53;4.07;;;2.75;;
17169;SDS011;8700;48.222;16.342;2023-09-19T10:27:18;3.63;;;2.45;;
17169;SDS011;8700;48.222;16.342;2023-09-19T10:30:42;2.63;;;2.42;;
17169;SDS011;8700;48.222;16.342;2023-09-19T10:34:07;5.90;;;4.07;;
17169;SDS011;8700;48.222;16.342;2023-09-19T10:37:31;2.60;;;2.50;;
17169;SDS011;8700;48.222;16.342;2023-09-19T10:40:58;2.45;;;2.20;;
17169;SDS011;8700;48.222;16.342;2023-09-19T10:44:25;3.13;;;2.92;;
17169;SDS011;8700;48.222;16.342;2023-09-19T10:47:48;4.32;;;2.70;;
17169;SDS011;8700;48.222;16.342;2023-09-19T10:51:13;2.13;;;2.00;;
17169;SDS011;8700;48.222;16.342;2023-09-19T10:54:39;2.00;;;1.90;;
17169;SDS011;8700;48.222;16.342;2023-09-19T10:58:11;4.07;;;2.83;;
17169;SDS011;8700;48.222;16.342;2023-09-19T11:01:43;3.28;;;2.88;;
17169;SDS011;8700;48.222;16.342;2023-09-19T11:05:10;2.50;;;2.30;;
17169;SDS011;8700;48.222;16.342;2023-09-19T11:16:10;2.33;;;2.03;;
17169;SDS011;8700;48.222;16.342;2023-09-19T11:23:47;4.88;;;3.15;;
17169;SDS011;8700;48.222;16.342;2023-09-19T11:31:48;2.90;;;2.70;;
17169;SDS011;8700;48.222;16.342;2023-09-19T11:35:11;3.60;;;2.97;;
17169;SDS011;8700;48.222;16.342;2023-09-19T11:42:41;2.53;;;2.38;;
17169;SDS011;8700;48.222;16.342;2023-09-19T11:46:05;3.28;;;2.13;;
17169;SDS011;8700;48.222;16.342;2023-09-19T11:49:28;2.95;;;2.38;;
17169;SDS011;8700;48.222;16.342;2023-09-19T11:52:52;3.78;;;2.10;;
17169;SDS011;8700;48.222;16.342;2023-09-19T11:56:18;2.22;;;2.13;;
17169;SDS011;8700;48.222;16.342;2023-09-19T11:59:43;2.25;;;2.05;;
17169;SDS011;8700;48.222;16.342;2023-09-19T12:03:08;3.30;;;3.10;;
17169;SDS011;8700;48.222;16.342;2023-09-19T12:06:34;2.28;;;2.15;;
17169;SDS011;8700;48.222;16.342;2023-09-19T12:10:02;4.13;;;2.78;;
17169;SDS011;8700;48.222;16.342;2023-09-19T12:13:31;3.95;;;3.42;;
17169;SDS011;8700;48.222;16.342;2023-09-19T12:16:55;2.92;;;2.63;;
17169;SDS011;8700;48.222;16.342;2023-09-19T12:20:20;2.72;;;2.53;;
17169;SDS011;8700;48.222;16.342;2023-09-19T12:23:43;2.88;;;2.67;;
17169;SDS011;8700;48.222;16.342;2023-09-19T12:27:06;3.20;;;2.45;;
17169;SDS011;8700;48.222;16.342;2023-09-19T12:30:31;3.70;;;2.47;;
17169;SDS011;8700;48.222;16.342;2023-09-19T12:33:56;4.13;;;3.78;;
17169;SDS011;8700;48.222;16.342;2023-09-19T12:37:20;3.08;;;2.88;;
17169;SDS011;8700;48.222;16.342;2023-09-19T12:40:49;5.30;;;1.98;;
17169;SDS011;8700;48.222;16.342;2023-09-19T12:44:13;4.20;;;1.92;;
17169;SDS011;8700;48.222;16.342;2023-09-19T12:47:39;2.20;;;2.08;;
17169;SDS011;8700;48.222;16.342;2023-09-19T12:51:03;2.50;;;2.17;;
17169;SDS011;8700;48.222;16.342;2023-09-19T12:54:37;4.05;;;2.47;;
17169;SDS011;8700;48.222;16.342;2023-09-19T12:58:11;6.78;;;1.80;;
17169;SDS011;8700;48.222;16.342;2023-09-19T13:01:35;2.17;;;2.08;;
17169;SDS011;8700;48.222;16.342;2023-09-19T13:05:03;3.55;;;3.25;;
17169;SDS011;8700;48.222;16.342;2023-09-19T13:08:27;3.08;;;2.78;;
17169;SDS011;8700;48.222;16.342;2023-09-19T13:11:53;4.97;;;2.83;;
17169;SDS011;8700;48.222;16.342;2023-09-19T13:15:16;3.00;;;2.80;;
17169;SDS011;8700;48.222;16.342;2023-09-19T13:18:46;2.92;;;2.47;;
17169;SDS011;8700;48.222;16.342;2023-09-19T13:26:00;3.13;;;2.92;;
17169;SDS011;8700;48.222;16.342;2023-09-19T13:29:24;2.22;;;2.13;;
17169;SDS011;8700;48.222;16.342;2023-09-19T13:32:47;2.35;;;1.77;;
17169;SDS011;8700;48.222;16.342;2023-09-19T13:36:09;6.10;;;2.80;;
17169;SDS011;8700;48.222;16.342;2023-09-19T13:39:34;1.85;;;1.75;;
17169;SDS011;8700;48.222;16.342;2023-09-19T13:42:58;1.70;;;1.60;;
17169;SDS011;8700;48.222;16.342;2023-09-19T13:46:22;3.47;;;2.92;;
17169;SDS011;8700;48.222;16.342;2023-09-19T13:49:47;2.80;;;2.60;;
17169;SDS011;8700;48.222;16.342;2023-09-19T13:53:11;3.20;;;2.25;;
17169;SDS011;8700;48.222;16.342;2023-09-19T13:56:36;2.13;;;2.03;;
17169;SDS011;8700;48.222;16.342;2023-09-19T13:59:59;1.90;;;1.80;;
17169;SDS011;8700;48.222;16.342;2023-09-19T14:03:22;3.55;;;2.67;;
17169;SDS011;8700;48.222;16.342;2023-09-19T14:06:44;2.30;;;2.10;;
17169;SDS011;8700;48.222;16.342;2023-09-19T14:10:08;2.72;;;2.53;;
17169;SDS011;8700;48.222;16.342;2023-09-19T14:13:33;3.38;;;2.63;;
17169;SDS011;8700;48.222;16.342;2023-09-19T14:16:57;3.33;;;3.03;;
17169;SDS011;8700;48.222;16.342;2023-09-19T14:20:21;2.10;;;1.95;;
17169;SDS011;8700;48.222;16.342;2023-09-19T14:23:47;2.85;;;2.60;;
17169;SDS011;8700;48.222;16.342;2023-09-19T14:27:10;2.55;;;2.33;;
17169;SDS011;8700;48.222;16.342;2023-09-19T14:30:34;4.95;;;1.95;;
17169;SDS011;8700;48.222;16.342;2023-09-19T14:33:58;2.45;;;2.25;;
17169;SDS011;8700;48.222;16.342;2023-09-19T14:37:22;1.98;;;1.88;;
17169;SDS011;8700;48.222;16.342;2023-09-19T14:40:44;2.97;;;2.78;;
17169;SDS011;8700;48.222;16.342;2023-09-19T14:44:11;2.70;;;1.75;;
17169;SDS011;8700;48.222;16.342;2023-09-19T14:47:37;2.42;;;2.22;;
17169;SDS011;8700;48.222;16.342;2023-09-19T14:51:01;2.72;;;2.63;;
17169;SDS011;8700;48.222;16.342;2023-09-19T14:54:24;2.83;;;2.63;;
17169;SDS011;8700;48.222;16.342;2023-09-19T14:57:49;1.92;;;1.83;;
17169;SDS011;8700;48.222;16.342;2023-09-19T15:01:13;2.58;;;2.13;;
17169;SDS011;8700;48.222;16.342;2023-09-19T15:09:24;3.22;;;2.10;;
17169;SDS011;8700;48.222;16.342;2023-09-19T15:12:49;3.05;;;2.75;;
17169;SDS011;8700;48.222;16.342;2023-09-19T15:16:12;2.03;;;1.92;;
17169;SDS011;8700;48.222;16.342;2023-09-19T15:19:36;3.08;;;2.40;;
17169;SDS011;8700;48.222;16.342;2023-09-19T15:22:58;2.58;;;2.38;;
17169;SDS011;8700;48.222;16.342;2023-09-19T15:26:24;2.85;;;2.53;;
17169;SDS011;8700;48.222;16.342;2023-09-19T15:29:47;2.53;;;2.22;;
17169;SDS011;8700;48.222;16.342;2023-09-19T15:33:10;3.10;;;2.90;;
17169;SDS011;8700;48.222;16.342;2023-09-19T15:36:33;2.80;;;2.60;;
17169;SDS011;8700;48.222;16.342;2023-09-19T15:39:56;4.45;;;4.05;;
17169;SDS011;8700;48.222;16.342;2023-09-19T15:43:20;2.47;;;2.28;;
17169;SDS011;8700;48.222;16.342;2023-09-19T15:46:42;3.05;;;2.85;;
17169;SDS011;8700;48.222;16.342;2023-09-19T15:50:06;4.32;;;2.63;;
17169;SDS011;8700;48.222;16.342;2023-09-19T15:53:34;2.15;;;2.05;;
17169;SDS011;8700;48.222;16.342;2023-09-19T15:57:05;1.83;;;1.73;;
17169;SDS011;8700;48.222;16.342;2023-09-19T16:00:29;3.50;;;2.58;;
17169;SDS011;8700;48.222;16.342;2023-09-19T16:03:53;2.78;;;2.58;;
17169;SDS011;8700;48.222;16.342;2023-09-19T16:07:18;2.30;;;2.08;;
17169;SDS011;8700;48.222;16.342;2023-09-19T16:10:41;2.65;;;2.47;;
17169;SDS011;8700;48.222;16.342;2023-09-19T16:14:04;2.58;;;2.38;;
17169;SDS011;8700;48.222;16.342;2023-09-19T16:17:31;2.10;;;2.00;;
17169;SDS011;8700;48.222;16.342;2023-09-19T16:21:00;2.65;;;1.95;;
17169;SDS011;8700;48.222;16.342;2023-09-19T16:24:24;1.77;;;1.67;;
17169;SDS011;8700;48.222;16.342;2023-09-19T16:27:47;2.65;;;2.47;;
17169;SDS011;8700;48.222;16.342;2023-09-19T16:31:10;1.80;;;1.70;;
17169;SDS011;8700;48.222;16.342;2023-09-19T16:39:07;1.75;;;1.65;;
17169;SDS011;8700;48.222;16.342;2023-09-19T16:42:31;2.83;;;2.47;;
17169;SDS011;8700;48.222;16.342;2023-09-19T16:45:53;2.72;;;2.53;;
17169;SDS011;8700;48.222;16.342;2023-09-19T16:49:16;1.80;;;1.70;;
17169;SDS011;8700;48.222;16.342;2023-09-19T16:52:38;2.38;;;1.80;;
17169;SDS011;8700;48.222;16.342;2023-09-19T16:56:02;2.97;;;2.70;;
17169;SDS011;8700;48.222;16.342;2023-09-19T16:59:28;2.15;;;2.03;;
17169;SDS011;8700;48.222;16.342;2023-09-19T17:02:51;2.10;;;1.90;;
17169;SDS011;8700;48.222;16.342;2023-09-19T17:06:16;2.20;;;2.05;;
17169;SDS011;8700;48.222;16.342;2023-09-19T17:09:42;3.25;;;2.47;;
17169;SDS011;8700;48.222;16.342;2023-09-19T17:13:07;2.47;;;2.28;;
17169;SDS011;8700;48.222;16.342;2023-09-19T17:16:31;4.32;;;2.17;;
17169;SDS011;8700;48.222;16.342;2023-09-19T17:19:54;2.25;;;1.95;;
17169;SDS011;8700;48.222;16.342;2023-09-19T17:23:17;2.97;;;2.78;;
17169;SDS011;8700;48.222;16.342;2023-09-19T17:26:39;4.10;;;2.55;;
17169;SDS011;8700;48.222;16.342;2023-09-19T17:34:36;2.67;;;2.28;;
17169;SDS011;8700;48.222;16.342;2023-09-19T17:37:58;2.30;;;2.20;;
17169;SDS011;8700;48.222;16.342;2023-09-19T17:41:21;2.50;;;2.30;;
17169;SDS011;8700;48.222;16.342;2023-09-19T17:44:44;2.00;;;1.90;;
17169;SDS011;8700;48.222;16.342;2023-09-19T17:52:42;3.15;;;2.38;;
17169;SDS011;8700;48.222;16.342;2023-09-19T17:56:05;2.88;;;2.65;;
17169;SDS011;8700;48.222;16.342;2023-09-19T17:59:30;2.45;;;2.35;;
17169;SDS011;8700;48.222;16.342;2023-09-19T18:02:52;3.80;;;3.50;;
17169;SDS011;8700;48.222;16.342;2023-09-19T18:06:15;3.90;;;3.60;;
17169;SDS011;8700;48.222;16.342;2023-09-19T18:09:40;3.90;;;3.05;;
17169;SDS011;8700;48.222;16.342;2023-09-19T18:13:03;3.28;;;2.80;;
17169;SDS011;8700;48.222;16.342;2023-09-19T18:21:12;3.28;;;3.08;;
17169;SDS011;8700;48.222;16.342;2023-09-19T18:24:35;3.17;;;2.45;;
17169;SDS011;8700;48.222;16.342;2023-09-19T18:27:59;2.90;;;2.70;;
17169;SDS011;8700;48.222;16.342;2023-09-19T18:31:22;5.30;;;2.90;;
17169;SDS011;8700;48.222;16.342;2023-09-19T18:34:44;2.58;;;2.38;;
17169;SDS011;8700;48.222;16.342;2023-09-19T18:38:07;2.55;;;2.35;;
17169;SDS011;8700;48.222;16.342;2023-09-19T18:46:04;3.80;;;2.35;;
17169;SDS011;8700;48.222;16.342;2023-09-19T18:49:30;2.10;;;2.00;;
17169;SDS011;8700;48.222;16.342;2023-09-19T18:52:57;2.60;;;2.40;;
17169;SDS011;8700;48.222;16.342;2023-09-19T18:56:20;2.70;;;2.50;;
17169;SDS011;8700;48.222;16.342;2023-09-19T18:59:44;2.33;;;2.17;;
17169;SDS011;8700;48.222;16.342;2023-09-19T19:03:08;2.25;;;2.05;;
17169;SDS011;8700;48.222;16.342;2023-09-19T19:06:33;1.98;;;1.85;;
17169;SDS011;8700;48.222;16.342;2023-09-19T19:09:55;2.58;;;2.45;;
17169;SDS011;8700;48.222;16.342;2023-09-19T19:13:18;3.13;;;2.88;;
17169;SDS011;8700;48.222;16.342;2023-09-19T19:16:41;2.67;;;2.47;;
17169;SDS011;8700;48.222;16.342;2023-09-19T19:20:06;2.55;;;2.35;;
17169;SDS011;8700;48.222;16.342;2023-09-19T19:23:30;2.00;;;1.83;;
17169;SDS011;8700;48.222;16.342;2023-09-19T19:36:05;2.42;;;2.30;;
17169;SDS011;8700;48.222;16.342;2023-09-19T19:39:29;2.55;;;2.35;;
17169;SDS011;8700;48.222;16.342;2023-09-19T19:42:53;2.38;;;2.20;;
17169;SDS011;8700;48.222;16.342;2023-09-19T19:46:15;2.28;;;2.08;;
17169;SDS011;8700;48.222;16.342;2023-09-19T19:49:38;2.30;;;1.85;;
17169;SDS011;8700;48.222;16.342;2023-09-19T19:57:34;2.38;;;2.00;;
17169;SDS011;8700;48.222;16.342;2023-09-19T20:01:00;2.38;;;2.17;;
17169;SDS011;8700;48.222;16.342;2023-09-19T20:04:23;2.28;;;2.15;;
17169;SDS011;8700;48.222;16.342;2023-09-19T20:07:46;2.03;;;1.92;;
17169;SDS011;8700;48.222;16.342;2023-09-19T20:11:10;3.88;;;3.47;;
17169;SDS011;8700;48.222;16.342;2023-09-19T20:14:36;2.30;;;2.20;;
17169;SDS011;8700;48.222;16.342;2023-09-19T20:18:00;2.45;;;2.35;;
17169;SDS011;8700;48.222;16.342;2023-09-19T20:21:23;2.17;;;2.08;;
17169;SDS011;8700;48.222;16.342;2023-09-19T20:24:46;2.53;;;2.33;;
17169;SDS011;8700;48.222;16.342;2023-09-19T20:32:54;1.92;;;1.75;;
17169;SDS011;8700;48.222;16.342;2023-09-19T20:36:22;2.15;;;1.85;;
17169;SDS011;8700;48.222;16.342;2023-09-19T20:39:44;2.42;;;2.22;;
17169;SDS011;8700;48.222;16.342;2023-09-19T20:43:07;2.10;;;2.00;;
17169;SDS011;8700;48.222;16.342;2023-09-19T20:51:16;2.55;;;2.35;;
17169;SDS011;8700;48.222;16.342;2023-09-19T20:54:45;2.22;;;2.13;;
17169;SDS011;8700;48.222;16.342;2023-09-19T20:58:09;3.80;;;3.50;;
17169;SDS011;8700;48.222;16.342;2023-09-19T21:01:32;2.88;;;2.67;;
17169;SDS011;8700;48.222;16.342;2023-09-19T21:04:55;2.70;;;2.50;;
17169;SDS011;8700;48.222;16.342;2023-09-19T21:08:19;2.55;;;2.35;;
17169;SDS011;8700;48.222;16.342;2023-09-19T21:11:41;2.58;;;2.20;;
17169;SDS011;8700;48.222;16.342;2023-09-19T21:15:04;2.58;;;2.38;;
17169;SDS011;8700;48.222;16.342;2023-09-19T21:18:27;1.98;;;1.88;;
17169;SDS011;8700;48.222;16.342;2023-09-19T21:21:50;1.77;;;1.67;;
17169;SDS011;8700;48.222;16.342;2023-09-19T21:25:16;2.53;;;2.33;;
17169;SDS011;8700;48.222;16.342;2023-09-19T21:28:40;1.77;;;1.65;;
17169;SDS011;8700;48.222;16.342;2023-09-19T21:32:03;2.90;;;2.08;;
17169;SDS011;8700;48.222;16.342;2023-09-19T21:35:26;1.75;;;1.65;;
17169;SDS011;8700;48.222;16.342;2023-09-19T21:38:49;2.13;;;1.98;;
17169;SDS011;8700;48.222;16.342;2023-09-19T21:42:15;2.38;;;1.63;;
17169;SDS011;8700;48.222;16.342;2023-09-19T21:45:38;2.50;;;2.30;;
17169;SDS011;8700;48.222;16.342;2023-09-19T21:49:02;1.85;;;1.75;;
17169;SDS011;8700;48.222;16.342;2023-09-19T21:52:24;1.70;;;1.60;;
17169;SDS011;8700;48.222;16.342;2023-09-19T21:55:48;2.17;;;1.95;;